Hatsu Excel — VSXV3 — position and weather

sailwx.info

Track history (hours):
 
Tides and Currents Weather Stations Pressure Air Temp Water Temp Dewpoint Dewpoint Depression Visibility Wind Speed Wind Dir Waves Ship Positions

Hatsu Excel

Last reported at 2018-May-12 23:10 UTC. Time now 2018-May-20 21:13 UTC.
Position N 39°58' W 130°12'.

Type: Ship (hazmat cat D). MMSI: 235479000.

Date/timePositionNaut miles runAvg speedWind from/ knotsBaromVisibWave heightAir tempDewpointWater temp
2018-May-12 23:10N 39°58' W 130°12'27511.1
2018-May-11 22:18N 38°10' W 124°47'5 8.9
2018-May-11 21:44N 38°10' W 124°40'2 8.7
2018-May-11 21:29N 38°10' W 124°37'22 8.7
2018-May-11 19:01N 38°10' W 124°10'0 8.1
2018-May-11 19:00N 38°10' W 124°10'6 8.5
2018-May-11 18:15N 38°10' W 124°02'2 8.5
2018-May-11 18:00N 38°10' W 123°59'4 8.4
2018-May-11 17:30N 38°09' W 123°54'4 8.7
2018-May-11 17:00N 38°09' W 123°48'4 8.9
2018-May-11 16:30N 38°09' W 123°43'4 8.6
2018-May-11 16:00N 38°09' W 123°37'4 8.8
2018-May-11 15:30N 38°10' W 123°32'5 9.7
2018-May-11 15:00N 38°09' W 123°25'4 9.0
2018-May-11 14:30N 38°09' W 123°20'5 9.5
2018-May-11 14:00N 38°05' W 123°16'5 9.7
2018-May-11 13:30N 38°01' W 123°12'510.3
2018-May-11 13:00N 37°58' W 123°07'611.2
2018-May-11 12:30N 37°55' W 123°01'611.6
2018-May-11 12:00N 37°52' W 122°55'611.8
2018-May-11 11:30N 37°49' W 122°48'612.1
2018-May-11 11:00N 37°45' W 122°42'4 9.2
2018-May-11 10:30N 37°46' W 122°37'815.2
2018-May-11 10:00N 37°49' W 122°28'611.4
2018-May-11 09:30N 37°48' W 122°21'1 1.7
2018-May-11 09:00N 37°48' W 122°20'0 0.0
2018-May-11 08:30N 37°49' W 122°20'0 0.0
2018-May-11 08:00N 37°48' W 122°20'0 0.0
2018-May-11 07:30N 37°49' W 122°20'0 0.0
2018-May-11 07:00N 37°49' W 122°20'0 0.0
2018-May-11 06:30N 37°49' W 122°20'0 0.0
2018-May-11 06:00N 37°49' W 122°20'0 0.0
2018-May-11 05:30N 37°49' W 122°20'0 0.0
2018-May-11 05:00N 37°49' W 122°20'0 0.0
2018-May-11 04:30N 37°48' W 122°20'0 0.0
2018-May-11 04:00N 37°49' W 122°20'0 0.0
2018-May-11 03:30N 37°49' W 122°20'0 0.0
2018-May-11 03:00N 37°48' W 122°20'0 0.0
2018-May-11 02:30N 37°48' W 122°20'0 0.0
2018-May-11 02:00N 37°49' W 122°20'0 0.0
2018-May-11 01:30N 37°49' W 122°20'0 0.0
2018-May-11 01:00N 37°49' W 122°20'0 0.0
2018-May-11 00:30N 37°48' W 122°20'0 0.0
2018-May-11 00:00N 37°48' W 122°20'0 0.0
2018-May-10 23:30N 37°49' W 122°20'0 0.0
2018-May-10 23:00N 37°49' W 122°20'0 0.0
2018-May-10 22:30N 37°48' W 122°20'0 0.0
2018-May-10 22:00N 37°48' W 122°20'0 0.0
2018-May-10 21:30N 37°49' W 122°20'0 0.0
2018-May-10 21:00N 37°49' W 122°20'0 0.0
2018-May-10 20:30N 37°49' W 122°20'0 0.0
2018-May-10 20:00N 37°49' W 122°20'0 0.0
2018-May-10 19:30N 37°48' W 122°20'0 0.0
2018-May-10 19:00N 37°49' W 122°20'0 0.0
2018-May-10 18:30N 37°48' W 122°20'0 0.0
2018-May-10 18:00N 37°48' W 122°20'0 0.0
2018-May-10 17:30N 37°49' W 122°20'0 0.0
2018-May-10 17:00N 37°49' W 122°20'0 0.0
2018-May-10 16:30N 37°49' W 122°20'0 0.0
2018-May-10 15:54N 37°49' W 122°20'0 0.0
2018-May-10 15:30N 37°49' W 122°20'0 0.0
2018-May-10 15:00N 37°48' W 122°20'0 0.0
2018-May-10 14:30N 37°49' W 122°20'0 0.0
2018-May-10 14:00N 37°49' W 122°20'0 0.0
2018-May-10 13:30N 37°49' W 122°20'0 0.0
2018-May-10 13:00N 37°49' W 122°20'0 0.0
2018-May-10 12:30N 37°49' W 122°20'0 0.0
2018-May-10 12:00N 37°48' W 122°20'0 0.0
2018-May-10 11:30N 37°48' W 122°20'0 0.0
2018-May-10 11:00N 37°48' W 122°20'0 0.0
2018-May-10 10:30N 37°48' W 122°20'0 0.0
2018-May-10 10:00N 37°49' W 122°20'0 0.0
2018-May-10 09:30N 37°48' W 122°20'0 0.0
2018-May-10 09:00N 37°48' W 122°20'0 0.0
2018-May-10 08:30N 37°49' W 122°20'0 0.0
2018-May-10 08:00N 37°49' W 122°20'0 0.0
2018-May-10 07:30N 37°48' W 122°20'0 0.0
2018-May-10 07:00N 37°49' W 122°20'0 0.0
2018-May-10 06:30N 37°48' W 122°20'0 0.0
2018-May-10 06:00N 37°49' W 122°20'0 0.0
2018-May-10 05:30N 37°48' W 122°20'0 0.0
2018-May-10 05:00N 37°49' W 122°20'0 0.0
2018-May-10 04:30N 37°49' W 122°20'0 0.0
2018-May-10 04:00N 37°49' W 122°20'0 0.0
2018-May-10 03:30N 37°48' W 122°20'0 0.0
2018-May-10 03:00N 37°49' W 122°20'0 0.0
2018-May-10 02:30N 37°49' W 122°20'0 0.0
2018-May-10 02:00N 37°49' W 122°20'0 0.0
2018-May-10 01:30N 37°49' W 122°20'0 0.0
2018-May-10 01:00N 37°49' W 122°20'0 0.0
2018-May-10 00:30N 37°48' W 122°20'0 0.0
2018-May-10 00:00N 37°48' W 122°20'0 0.0
2018-May-09 23:30N 37°49' W 122°20'0 0.0
2018-May-09 23:00N 37°49' W 122°20'1 1.3
2018-May-09 22:31N 37°49' W 122°20'2 4.5
2018-May-09 22:00N 37°48' W 122°22'612.6
2018-May-09 21:30N 37°48' W 122°30'714.6
2018-May-09 21:00N 37°45' W 122°39'4 8.7
2018-May-09 20:31N 37°41' W 122°40'5 9.0
2018-May-09 20:01N 37°37' W 122°40'510.5
2018-May-09 19:30N 37°31' W 122°39'510.5
2018-May-09 19:01N 37°26' W 122°39'510.4
2018-May-09 18:30N 37°21' W 122°39'510.7
2018-May-09 18:01N 37°16' W 122°40'510.7
2018-May-09 17:30N 37°10' W 122°40'510.2
2018-May-09 17:01N 37°05' W 122°39'5 9.4
2018-May-09 16:31N 37°01' W 122°38'0 0.6
2018-May-09 15:59N 37°01' W 122°39'1 1.6
2018-May-09 15:30N 37°00' W 122°38'510.1
2018-May-09 15:00N 36°56' W 122°35'712.1
2018-May-09 14:25N 36°49' W 122°31'712.4
2018-May-09 13:50N 36°43' W 122°28'3412.7
2018-May-09 11:11N 36°11' W 122°13'5511.9
2018-May-09 06:31N 35°23' W 121°39'012.2
2018-May-09 06:30N 35°23' W 121°39'611.8
2018-May-09 05:59N 35°18' W 121°35'611.9
2018-May-09 05:30N 35°13' W 121°31'611.8
2018-May-09 05:01N 35°08' W 121°27'612.2
2018-May-09 04:30N 35°03' W 121°23'612.2
2018-May-09 03:59N 34°58' W 121°19'612.8
2018-May-09 03:30N 34°53' W 121°14'612.7
2018-May-09 03:01N 34°48' W 121°10'712.8
2018-May-09 02:29N 34°42' W 121°05'612.6
2018-May-09 02:00N 34°37' W 121°01'612.4
2018-May-09 01:31N 34°32' W 120°57'612.6
2018-May-09 01:00N 34°27' W 120°52'612.0
2018-May-09 00:30N 34°25' W 120°46'612.2
2018-May-09 00:01N 34°23' W 120°39'612.1
2018-May-08 23:30N 34°21' W 120°31'612.2
2018-May-08 23:01N 34°20' W 120°24'612.2
2018-May-08 22:29N 34°18' W 120°17'611.1
2018-May-08 21:57N 34°17' W 120°10'511.5
2018-May-08 21:30N 34°15' W 120°04'511.3
2018-May-08 21:00N 34°14' W 119°57'611.1
2018-May-08 20:30N 34°12' W 119°51'611.0
2018-May-08 20:00N 34°11' W 119°44'610.8
2018-May-08 19:28N 34°10' W 119°38'510.9
2018-May-08 19:00N 34°08' W 119°32'611.0
2018-May-08 18:28N 34°06' W 119°25'511.1
2018-May-08 18:00N 34°05' W 119°19'611.2
2018-May-08 17:30N 34°03' W 119°13'611.4
2018-May-08 17:00N 34°00' W 119°07'611.4
2018-May-08 16:30N 33°58' W 119°01'611.8
2018-May-08 16:00N 33°55' W 118°55'611.6
2018-May-08 15:31N 33°52' W 118°49'611.8
2018-May-08 15:00N 33°49' W 118°42'611.7
2018-May-08 14:30N 33°46' W 118°36'611.7
2018-May-08 14:00N 33°43' W 118°30'611.5
2018-May-08 13:30N 33°40' W 118°24'611.0
2018-May-08 13:00N 33°38' W 118°18'510.4
2018-May-08 12:31N 33°42' W 118°15'3 5.0
2018-May-08 11:59N 33°45' W 118°16'0 0.0
2018-May-08 11:29N 33°45' W 118°16'0 0.0
2018-May-08 10:59N 33°45' W 118°16'0 0.0
2018-May-08 10:29N 33°45' W 118°16'0 0.0
2018-May-08 09:59N 33°45' W 118°16'0 0.0
2018-May-08 09:29N 33°45' W 118°16'0 0.0
2018-May-08 08:59N 33°45' W 118°16'0 0.0
2018-May-08 08:29N 33°45' W 118°16'0 0.0
2018-May-08 07:59N 33°45' W 118°16'0 0.0
2018-May-08 07:29N 33°45' W 118°16'0 0.0
2018-May-08 06:59N 33°45' W 118°16'0 0.0
2018-May-08 06:29N 33°45' W 118°16'0 0.0
2018-May-08 05:59N 33°45' W 118°16'0 0.0
2018-May-08 05:29N 33°45' W 118°16'0 0.0
2018-May-08 04:59N 33°45' W 118°16'0 0.0
2018-May-08 04:29N 33°45' W 118°16'0 0.0
2018-May-08 03:59N 33°45' W 118°16'0 0.0
2018-May-08 03:29N 33°45' W 118°16'0 0.0
2018-May-08 02:59N 33°45' W 118°16'0 0.0
2018-May-08 02:29N 33°45' W 118°16'0 0.0
2018-May-08 01:59N 33°45' W 118°16'0 0.0
2018-May-08 01:29N 33°45' W 118°16'0 0.0
2018-May-08 00:59N 33°45' W 118°16'0 0.0
2018-May-08 00:29N 33°45' W 118°16'0 0.0
2018-May-07 23:59N 33°45' W 118°16'0 0.0
2018-May-07 23:26N 33°45' W 118°16'0 0.0
2018-May-07 22:59N 33°45' W 118°16'0 0.0
2018-May-07 22:29N 33°45' W 118°16'0 0.0
2018-May-07 21:59N 33°45' W 118°16'0 0.0
2018-May-07 21:29N 33°45' W 118°16'0 0.0
2018-May-07 20:59N 33°45' W 118°16'0 0.0
2018-May-07 20:29N 33°45' W 118°16'0 0.0
2018-May-07 19:59N 33°45' W 118°16'0 0.0
2018-May-07 19:29N 33°45' W 118°16'0 0.0
2018-May-07 18:56N 33°45' W 118°16'0 0.0
2018-May-07 18:29N 33°45' W 118°16'0 0.0
2018-May-07 17:56N 33°45' W 118°16'0 0.0
2018-May-07 17:29N 33°45' W 118°16'0 0.0
2018-May-07 16:59N 33°45' W 118°16'0 0.0
2018-May-07 16:29N 33°45' W 118°16'0 0.1
2018-May-07 15:56N 33°45' W 118°16'0 0.1
2018-May-07 15:29N 33°45' W 118°16'0 0.0
2018-May-07 14:59N 33°45' W 118°16'0 0.0
2018-May-07 14:26N 33°45' W 118°16'0 0.0
2018-May-07 13:59N 33°45' W 118°16'0 0.0
2018-May-07 13:29N 33°45' W 118°16'0 0.0
2018-May-07 12:59N 33°45' W 118°16'0 0.0
2018-May-07 12:29N 33°45' W 118°16'0 0.0
2018-May-07 11:59N 33°45' W 118°16'0 0.0
2018-May-07 11:29N 33°45' W 118°16'0 0.0
2018-May-07 10:59N 33°45' W 118°16'0 0.0
2018-May-07 10:29N 33°45' W 118°16'0 0.0
2018-May-07 09:59N 33°45' W 118°16'0 0.0
2018-May-07 09:29N 33°45' W 118°16'0 0.0
2018-May-07 08:59N 33°45' W 118°16'0 0.0
2018-May-07 08:29N 33°45' W 118°16'0 0.0
2018-May-07 07:59N 33°45' W 118°16'0 0.0
2018-May-07 07:29N 33°45' W 118°16'0 0.0
2018-May-07 06:56N 33°45' W 118°16'0 0.1
2018-May-07 06:29N 33°45' W 118°16'0 0.0
2018-May-07 05:59N 33°45' W 118°16'0 0.1
2018-May-07 05:26N 33°45' W 118°16'0 0.1
2018-May-07 04:59N 33°45' W 118°16'0 0.0
2018-May-07 04:29N 33°45' W 118°16'0 0.0
2018-May-07 03:59N 33°45' W 118°16'0 0.0
2018-May-07 03:29N 33°45' W 118°16'0 0.0
2018-May-07 02:59N 33°45' W 118°16'0 0.0
2018-May-07 02:29N 33°45' W 118°16'0 0.0
2018-May-07 01:59N 33°45' W 118°16'0 0.0
2018-May-07 01:29N 33°45' W 118°16'0 0.0
2018-May-07 00:59N 33°45' W 118°16'0 0.0
2018-May-07 00:29N 33°45' W 118°16'0 0.0
2018-May-06 23:59N 33°45' W 118°16'0 0.0
2018-May-06 23:29N 33°45' W 118°16'0 0.0
2018-May-06 22:59N 33°45' W 118°16'0 0.0
2018-May-06 22:26N 33°45' W 118°16'0 0.0
2018-May-06 21:59N 33°45' W 118°16'0 0.0
2018-May-06 21:29N 33°45' W 118°16'0 0.0
2018-May-06 20:59N 33°45' W 118°16'0 0.0
2018-May-06 20:29N 33°45' W 118°16'0 0.0
2018-May-06 19:59N 33°45' W 118°16'0 0.0
2018-May-06 19:29N 33°45' W 118°16'0 0.0
2018-May-06 18:59N 33°45' W 118°16'0 0.0
2018-May-06 18:29N 33°45' W 118°16'0 0.0
2018-May-06 17:59N 33°45' W 118°16'0 0.0
2018-May-06 17:29N 33°45' W 118°16'0 0.0
2018-May-06 16:59N 33°45' W 118°16'0 0.0
2018-May-06 16:29N 33°45' W 118°16'0 0.0
2018-May-06 15:59N 33°45' W 118°16'0 0.0
2018-May-06 15:29N 33°45' W 118°16'0 0.0
2018-May-06 14:59N 33°45' W 118°16'0 0.0
2018-May-06 14:29N 33°45' W 118°16'0 0.0
2018-May-06 13:59N 33°45' W 118°16'0 0.0
2018-May-06 13:29N 33°45' W 118°16'0 0.0
2018-May-06 12:59N 33°45' W 118°16'0 0.0
2018-May-06 12:30N 33°45' W 118°16'0 0.2
2018-May-06 12:00N 33°45' W 118°16'2 4.8
2018-May-06 11:30N 33°43' W 118°15'4 7.8
2018-May-06 11:00N 33°39' W 118°15'4 7.5
2018-May-06 10:30N 33°36' W 118°19'611.1
2018-May-06 10:00N 33°36' W 118°25'611.0
2018-May-06 09:30N 33°37' W 118°32'611.7
2018-May-06 09:00N 33°37' W 118°39'611.7
2018-May-06 08:29N 33°37' W 118°46'611.5
2018-May-06 07:59N 33°37' W 118°53'611.5
2018-May-06 07:30N 33°38' W 119°00'611.9
2018-May-06 07:00N 33°38' W 119°07'713.6
2018-May-06 06:30N 33°38' W 119°15'714.7
2018-May-06 06:00N 33°38' W 119°24'815.3
2018-May-06 05:31N 33°38' W 119°33'816.3
2018-May-06 05:00N 33°38' W 119°43'816.3
2018-May-06 04:30N 33°38' W 119°53'816.1
2018-May-06 04:00N 33°38' W 120°02'816.3
2018-May-06 03:30N 33°38' W 120°12'816.5
2018-May-06 03:01N 33°38' W 120°22'816.2
2018-May-06 02:30N 33°38' W 120°32'916.9
2018-May-06 02:00N 33°37' W 120°42'917.4
2018-May-06 01:30N 33°37' W 120°53'917.4
2018-May-06 01:00N 33°38' W 121°03'917.3
2018-May-06 00:30N 33°38' W 121°13'917.3
2018-May-06 00:00N 33°38' W 121°24'817.2
2018-May-05 23:30N 33°38' W 121°34'2917.1
2018-May-05 21:48N 33°37' W 122°09'517.4
2018-May-05 21:30N 33°37' W 122°15'817.1
2018-May-05 21:00N 33°37' W 122°25'1017.3
2018-May-05 20:24N 33°37' W 122°38'717.3
2018-May-05 19:58N 33°37' W 122°47'1017.4
2018-May-05 19:22N 33°37' W 122°60'817.7
2018-May-05 18:54N 33°37' W 123°09'1317.7
2018-May-05 18:09N 33°37' W 123°25'317.6
2018-May-05 17:58N 33°37' W 123°29'817.7
2018-May-05 17:30N 33°37' W 123°39'1717.7
2018-May-05 16:32N 33°37' W 123°60'118.5
2018-May-05 16:31N 33°37' W 124°00'  
Track history (hours):
 
Tides and Currents Weather Stations Pressure Air Temp Water Temp Dewpoint Dewpoint Depression Visibility Wind Speed Wind Dir Waves Ship Positions

Hatsu Excel

Last reported at 2018-May-12 23:10 UTC. Time now 2018-May-20 21:13 UTC.
Position N 39°58' W 130°12'.

Type: Ship (hazmat cat D). MMSI: 235479000.

Date/timePositionNaut miles runAvg speedWind from/ knotsBaromVisibWave heightAir tempDewpointWater temp
2018-May-12 23:10N 39°58' W 130°12'27511.1
2018-May-11 22:18N 38°10' W 124°47'5 8.9
2018-May-11 21:44N 38°10' W 124°40'2 8.7
2018-May-11 21:29N 38°10' W 124°37'22 8.7
2018-May-11 19:01N 38°10' W 124°10'0 8.1
2018-May-11 19:00N 38°10' W 124°10'6 8.5
2018-May-11 18:15N 38°10' W 124°02'2 8.5
2018-May-11 18:00N 38°10' W 123°59'4 8.4
2018-May-11 17:30N 38°09' W 123°54'4 8.7
2018-May-11 17:00N 38°09' W 123°48'4 8.9
2018-May-11 16:30N 38°09' W 123°43'4 8.6
2018-May-11 16:00N 38°09' W 123°37'4 8.8
2018-May-11 15:30N 38°10' W 123°32'5 9.7
2018-May-11 15:00N 38°09' W 123°25'4 9.0
2018-May-11 14:30N 38°09' W 123°20'5 9.5
2018-May-11 14:00N 38°05' W 123°16'5 9.7
2018-May-11 13:30N 38°01' W 123°12'510.3
2018-May-11 13:00N 37°58' W 123°07'611.2
2018-May-11 12:30N 37°55' W 123°01'611.6
2018-May-11 12:00N 37°52' W 122°55'611.8
2018-May-11 11:30N 37°49' W 122°48'612.1
2018-May-11 11:00N 37°45' W 122°42'4 9.2
2018-May-11 10:30N 37°46' W 122°37'815.2
2018-May-11 10:00N 37°49' W 122°28'611.4
2018-May-11 09:30N 37°48' W 122°21'1 1.7
2018-May-11 09:00N 37°48' W 122°20'0 0.0
2018-May-11 08:30N 37°49' W 122°20'0 0.0
2018-May-11 08:00N 37°48' W 122°20'0 0.0
2018-May-11 07:30N 37°49' W 122°20'0 0.0
2018-May-11 07:00N 37°49' W 122°20'0 0.0
2018-May-11 06:30N 37°49' W 122°20'0 0.0
2018-May-11 06:00N 37°49' W 122°20'0 0.0
2018-May-11 05:30N 37°49' W 122°20'0 0.0
2018-May-11 05:00N 37°49' W 122°20'0 0.0
2018-May-11 04:30N 37°48' W 122°20'0 0.0
2018-May-11 04:00N 37°49' W 122°20'0 0.0
2018-May-11 03:30N 37°49' W 122°20'0 0.0
2018-May-11 03:00N 37°48' W 122°20'0 0.0
2018-May-11 02:30N 37°48' W 122°20'0 0.0
2018-May-11 02:00N 37°49' W 122°20'0 0.0
2018-May-11 01:30N 37°49' W 122°20'0 0.0
2018-May-11 01:00N 37°49' W 122°20'0 0.0
2018-May-11 00:30N 37°48' W 122°20'0 0.0
2018-May-11 00:00N 37°48' W 122°20'0 0.0
2018-May-10 23:30N 37°49' W 122°20'0 0.0
2018-May-10 23:00N 37°49' W 122°20'0 0.0
2018-May-10 22:30N 37°48' W 122°20'0 0.0
2018-May-10 22:00N 37°48' W 122°20'0 0.0
2018-May-10 21:30N 37°49' W 122°20'0 0.0
2018-May-10 21:00N 37°49' W 122°20'0 0.0
2018-May-10 20:30N 37°49' W 122°20'0 0.0
2018-May-10 20:00N 37°49' W 122°20'0 0.0
2018-May-10 19:30N 37°48' W 122°20'0 0.0
2018-May-10 19:00N 37°49' W 122°20'0 0.0
2018-May-10 18:30N 37°48' W 122°20'0 0.0
2018-May-10 18:00N 37°48' W 122°20'0 0.0
2018-May-10 17:30N 37°49' W 122°20'0 0.0
2018-May-10 17:00N 37°49' W 122°20'0 0.0
2018-May-10 16:30N 37°49' W 122°20'0 0.0
2018-May-10 15:54N 37°49' W 122°20'0 0.0
2018-May-10 15:30N 37°49' W 122°20'0 0.0
2018-May-10 15:00N 37°48' W 122°20'0 0.0
2018-May-10 14:30N 37°49' W 122°20'0 0.0
2018-May-10 14:00N 37°49' W 122°20'0 0.0
2018-May-10 13:30N 37°49' W 122°20'0 0.0
2018-May-10 13:00N 37°49' W 122°20'0 0.0
2018-May-10 12:30N 37°49' W 122°20'0 0.0
2018-May-10 12:00N 37°48' W 122°20'0 0.0
2018-May-10 11:30N 37°48' W 122°20'0 0.0
2018-May-10 11:00N 37°48' W 122°20'0 0.0
2018-May-10 10:30N 37°48' W 122°20'0 0.0
2018-May-10 10:00N 37°49' W 122°20'0 0.0
2018-May-10 09:30N 37°48' W 122°20'0 0.0
2018-May-10 09:00N 37°48' W 122°20'0 0.0
2018-May-10 08:30N 37°49' W 122°20'0 0.0
2018-May-10 08:00N 37°49' W 122°20'0 0.0
2018-May-10 07:30N 37°48' W 122°20'0 0.0
2018-May-10 07:00N 37°49' W 122°20'0 0.0
2018-May-10 06:30N 37°48' W 122°20'0 0.0
2018-May-10 06:00N 37°49' W 122°20'0 0.0
2018-May-10 05:30N 37°48' W 122°20'0 0.0
2018-May-10 05:00N 37°49' W 122°20'0 0.0
2018-May-10 04:30N 37°49' W 122°20'0 0.0
2018-May-10 04:00N 37°49' W 122°20'0 0.0
2018-May-10 03:30N 37°48' W 122°20'0 0.0
2018-May-10 03:00N 37°49' W 122°20'0 0.0
2018-May-10 02:30N 37°49' W 122°20'0 0.0
2018-May-10 02:00N 37°49' W 122°20'0 0.0
2018-May-10 01:30N 37°49' W 122°20'0 0.0
2018-May-10 01:00N 37°49' W 122°20'0 0.0
2018-May-10 00:30N 37°48' W 122°20'0 0.0
2018-May-10 00:00N 37°48' W 122°20'0 0.0
2018-May-09 23:30N 37°49' W 122°20'0 0.0
2018-May-09 23:00N 37°49' W 122°20'1 1.3
2018-May-09 22:31N 37°49' W 122°20'2 4.5
2018-May-09 22:00N 37°48' W 122°22'612.6
2018-May-09 21:30N 37°48' W 122°30'714.6
2018-May-09 21:00N 37°45' W 122°39'4 8.7
2018-May-09 20:31N 37°41' W 122°40'5 9.0
2018-May-09 20:01N 37°37' W 122°40'510.5
2018-May-09 19:30N 37°31' W 122°39'510.5
2018-May-09 19:01N 37°26' W 122°39'510.4
2018-May-09 18:30N 37°21' W 122°39'510.7
2018-May-09 18:01N 37°16' W 122°40'510.7
2018-May-09 17:30N 37°10' W 122°40'510.2
2018-May-09 17:01N 37°05' W 122°39'5 9.4
2018-May-09 16:31N 37°01' W 122°38'0 0.6
2018-May-09 15:59N 37°01' W 122°39'1 1.6
2018-May-09 15:30N 37°00' W 122°38'510.1
2018-May-09 15:00N 36°56' W 122°35'712.1
2018-May-09 14:25N 36°49' W 122°31'712.4
2018-May-09 13:50N 36°43' W 122°28'3412.7
2018-May-09 11:11N 36°11' W 122°13'5511.9
2018-May-09 06:31N 35°23' W 121°39'012.2
2018-May-09 06:30N 35°23' W 121°39'611.8
2018-May-09 05:59N 35°18' W 121°35'611.9
2018-May-09 05:30N 35°13' W 121°31'611.8
2018-May-09 05:01N 35°08' W 121°27'612.2
2018-May-09 04:30N 35°03' W 121°23'612.2
2018-May-09 03:59N 34°58' W 121°19'612.8
2018-May-09 03:30N 34°53' W 121°14'612.7
2018-May-09 03:01N 34°48' W 121°10'712.8
2018-May-09 02:29N 34°42' W 121°05'612.6
2018-May-09 02:00N 34°37' W 121°01'612.4
2018-May-09 01:31N 34°32' W 120°57'612.6
2018-May-09 01:00N 34°27' W 120°52'612.0
2018-May-09 00:30N 34°25' W 120°46'612.2
2018-May-09 00:01N 34°23' W 120°39'612.1
2018-May-08 23:30N 34°21' W 120°31'612.2
2018-May-08 23:01N 34°20' W 120°24'612.2
2018-May-08 22:29N 34°18' W 120°17'611.1
2018-May-08 21:57N 34°17' W 120°10'511.5
2018-May-08 21:30N 34°15' W 120°04'511.3
2018-May-08 21:00N 34°14' W 119°57'611.1
2018-May-08 20:30N 34°12' W 119°51'611.0
2018-May-08 20:00N 34°11' W 119°44'610.8
2018-May-08 19:28N 34°10' W 119°38'510.9
2018-May-08 19:00N 34°08' W 119°32'611.0
2018-May-08 18:28N 34°06' W 119°25'511.1
2018-May-08 18:00N 34°05' W 119°19'611.2
2018-May-08 17:30N 34°03' W 119°13'611.4
2018-May-08 17:00N 34°00' W 119°07'611.4
2018-May-08 16:30N 33°58' W 119°01'611.8
2018-May-08 16:00N 33°55' W 118°55'611.6
2018-May-08 15:31N 33°52' W 118°49'611.8
2018-May-08 15:00N 33°49' W 118°42'611.7
2018-May-08 14:30N 33°46' W 118°36'611.7
2018-May-08 14:00N 33°43' W 118°30'611.5
2018-May-08 13:30N 33°40' W 118°24'611.0
2018-May-08 13:00N 33°38' W 118°18'510.4
2018-May-08 12:31N 33°42' W 118°15'3 5.0
2018-May-08 11:59N 33°45' W 118°16'0 0.0
2018-May-08 11:29N 33°45' W 118°16'0 0.0
2018-May-08 10:59N 33°45' W 118°16'0 0.0
2018-May-08 10:29N 33°45' W 118°16'0 0.0
2018-May-08 09:59N 33°45' W 118°16'0 0.0
2018-May-08 09:29N 33°45' W 118°16'0 0.0
2018-May-08 08:59N 33°45' W 118°16'0 0.0
2018-May-08 08:29N 33°45' W 118°16'0 0.0
2018-May-08 07:59N 33°45' W 118°16'0 0.0
2018-May-08 07:29N 33°45' W 118°16'0 0.0
2018-May-08 06:59N 33°45' W 118°16'0 0.0
2018-May-08 06:29N 33°45' W 118°16'0 0.0
2018-May-08 05:59N 33°45' W 118°16'0 0.0
2018-May-08 05:29N 33°45' W 118°16'0 0.0
2018-May-08 04:59N 33°45' W 118°16'0 0.0
2018-May-08 04:29N 33°45' W 118°16'0 0.0
2018-May-08 03:59N 33°45' W 118°16'0 0.0
2018-May-08 03:29N 33°45' W 118°16'0 0.0
2018-May-08 02:59N 33°45' W 118°16'0 0.0
2018-May-08 02:29N 33°45' W 118°16'0 0.0
2018-May-08 01:59N 33°45' W 118°16'0 0.0
2018-May-08 01:29N 33°45' W 118°16'0 0.0
2018-May-08 00:59N 33°45' W 118°16'0 0.0
2018-May-08 00:29N 33°45' W 118°16'0 0.0
2018-May-07 23:59N 33°45' W 118°16'0 0.0
2018-May-07 23:26N 33°45' W 118°16'0 0.0
2018-May-07 22:59N 33°45' W 118°16'0 0.0
2018-May-07 22:29N 33°45' W 118°16'0 0.0
2018-May-07 21:59N 33°45' W 118°16'0 0.0
2018-May-07 21:29N 33°45' W 118°16'0 0.0
2018-May-07 20:59N 33°45' W 118°16'0 0.0
2018-May-07 20:29N 33°45' W 118°16'0 0.0
2018-May-07 19:59N 33°45' W 118°16'0 0.0
2018-May-07 19:29N 33°45' W 118°16'0 0.0
2018-May-07 18:56N 33°45' W 118°16'0 0.0
2018-May-07 18:29N 33°45' W 118°16'0 0.0
2018-May-07 17:56N 33°45' W 118°16'0 0.0
2018-May-07 17:29N 33°45' W 118°16'0 0.0
2018-May-07 16:59N 33°45' W 118°16'0 0.0
2018-May-07 16:29N 33°45' W 118°16'0 0.1
2018-May-07 15:56N 33°45' W 118°16'0 0.1
2018-May-07 15:29N 33°45' W 118°16'0 0.0
2018-May-07 14:59N 33°45' W 118°16'0 0.0
2018-May-07 14:26N 33°45' W 118°16'0 0.0
2018-May-07 13:59N 33°45' W 118°16'0 0.0
2018-May-07 13:29N 33°45' W 118°16'0 0.0
2018-May-07 12:59N 33°45' W 118°16'0 0.0
2018-May-07 12:29N 33°45' W 118°16'0 0.0
2018-May-07 11:59N 33°45' W 118°16'0 0.0
2018-May-07 11:29N 33°45' W 118°16'0 0.0
2018-May-07 10:59N 33°45' W 118°16'0 0.0
2018-May-07 10:29N 33°45' W 118°16'0 0.0
2018-May-07 09:59N 33°45' W 118°16'0 0.0
2018-May-07 09:29N 33°45' W 118°16'0 0.0
2018-May-07 08:59N 33°45' W 118°16'0 0.0
2018-May-07 08:29N 33°45' W 118°16'0 0.0
2018-May-07 07:59N 33°45' W 118°16'0 0.0
2018-May-07 07:29N 33°45' W 118°16'0 0.0
2018-May-07 06:56N 33°45' W 118°16'0 0.1
2018-May-07 06:29N 33°45' W 118°16'0 0.0
2018-May-07 05:59N 33°45' W 118°16'0 0.1
2018-May-07 05:26N 33°45' W 118°16'0 0.1
2018-May-07 04:59N 33°45' W 118°16'0 0.0
2018-May-07 04:29N 33°45' W 118°16'0 0.0
2018-May-07 03:59N 33°45' W 118°16'0 0.0
2018-May-07 03:29N 33°45' W 118°16'0 0.0
2018-May-07 02:59N 33°45' W 118°16'0 0.0
2018-May-07 02:29N 33°45' W 118°16'0 0.0
2018-May-07 01:59N 33°45' W 118°16'0 0.0
2018-May-07 01:29N 33°45' W 118°16'0 0.0
2018-May-07 00:59N 33°45' W 118°16'0 0.0
2018-May-07 00:29N 33°45' W 118°16'0 0.0
2018-May-06 23:59N 33°45' W 118°16'0 0.0
2018-May-06 23:29N 33°45' W 118°16'0 0.0
2018-May-06 22:59N 33°45' W 118°16'0 0.0
2018-May-06 22:26N 33°45' W 118°16'0 0.0
2018-May-06 21:59N 33°45' W 118°16'0 0.0
2018-May-06 21:29N 33°45' W 118°16'0 0.0
2018-May-06 20:59N 33°45' W 118°16'0 0.0
2018-May-06 20:29N 33°45' W 118°16'0 0.0
2018-May-06 19:59N 33°45' W 118°16'0 0.0
2018-May-06 19:29N 33°45' W 118°16'0 0.0
2018-May-06 18:59N 33°45' W 118°16'0 0.0
2018-May-06 18:29N 33°45' W 118°16'0 0.0
2018-May-06 17:59N 33°45' W 118°16'0 0.0
2018-May-06 17:29N 33°45' W 118°16'0 0.0
2018-May-06 16:59N 33°45' W 118°16'0 0.0
2018-May-06 16:29N 33°45' W 118°16'0 0.0
2018-May-06 15:59N 33°45' W 118°16'0 0.0
2018-May-06 15:29N 33°45' W 118°16'0 0.0
2018-May-06 14:59N 33°45' W 118°16'0 0.0
2018-May-06 14:29N 33°45' W 118°16'0 0.0
2018-May-06 13:59N 33°45' W 118°16'0 0.0
2018-May-06 13:29N 33°45' W 118°16'0 0.0
2018-May-06 12:59N 33°45' W 118°16'0 0.0
2018-May-06 12:30N 33°45' W 118°16'0 0.2
2018-May-06 12:00N 33°45' W 118°16'2 4.8
2018-May-06 11:30N 33°43' W 118°15'4 7.8
2018-May-06 11:00N 33°39' W 118°15'4 7.5
2018-May-06 10:30N 33°36' W 118°19'611.1
2018-May-06 10:00N 33°36' W 118°25'611.0
2018-May-06 09:30N 33°37' W 118°32'611.7
2018-May-06 09:00N 33°37' W 118°39'611.7
2018-May-06 08:29N 33°37' W 118°46'611.5
2018-May-06 07:59N 33°37' W 118°53'611.5
2018-May-06 07:30N 33°38' W 119°00'611.9
2018-May-06 07:00N 33°38' W 119°07'713.6
2018-May-06 06:30N 33°38' W 119°15'714.7
2018-May-06 06:00N 33°38' W 119°24'815.3
2018-May-06 05:31N 33°38' W 119°33'816.3
2018-May-06 05:00N 33°38' W 119°43'816.3
2018-May-06 04:30N 33°38' W 119°53'816.1
2018-May-06 04:00N 33°38' W 120°02'816.3
2018-May-06 03:30N 33°38' W 120°12'816.5
2018-May-06 03:01N 33°38' W 120°22'816.2
2018-May-06 02:30N 33°38' W 120°32'916.9
2018-May-06 02:00N 33°37' W 120°42'917.4
2018-May-06 01:30N 33°37' W 120°53'917.4
2018-May-06 01:00N 33°38' W 121°03'917.3
2018-May-06 00:30N 33°38' W 121°13'917.3
2018-May-06 00:00N 33°38' W 121°24'817.2
2018-May-05 23:30N 33°38' W 121°34'2917.1
2018-May-05 21:48N 33°37' W 122°09'517.4
2018-May-05 21:30N 33°37' W 122°15'817.1
2018-May-05 21:00N 33°37' W 122°25'1017.3
2018-May-05 20:24N 33°37' W 122°38'717.3
2018-May-05 19:58N 33°37' W 122°47'1017.4
2018-May-05 19:22N 33°37' W 122°60'817.7
2018-May-05 18:54N 33°37' W 123°09'1317.7
2018-May-05 18:09N 33°37' W 123°25'317.6
2018-May-05 17:58N 33°37' W 123°29'817.7
2018-May-05 17:30N 33°37' W 123°39'1717.7
2018-May-05 16:32N 33°37' W 123°60'118.5
2018-May-05 16:31N 33°37' W 124°00'  

Dump ship's entire track history